Time;durP1;ratioP1;P1;durP2;ratioP2;P2;SDS_P1;SDS_P2;PMS_P1;PMS_P2;Temp;Humidity;BMP_temperature;BMP_pressure;BME280_temperature;BME280_humidity;BME280_pressure;Samples;Min_cycle;Max_cycle;Signal;HPM_P1;HPM_P2
2022/11/24 00:00:52;;;;;;;;;;;10.40;99.90;;;;;;7343627;19;109230;-76
2022/11/24 00:03:19;;;;;;;;;;;10.30;99.90;;;;;;7344482;19;108710;-76
2022/11/24 00:05:47;;;;;;;;;;;10.30;99.90;;;;;;7341685;19;109860;-77
2022/11/24 00:08:14;;;;;;;;;;;10.30;99.90;;;;;;7341046;19;109529;-76
2022/11/24 00:10:41;;;;;;;;;;;10.30;99.90;;;;;;7340579;19;109566;-76
2022/11/24 00:13:08;;;;;;;;;;;10.30;99.90;;;;;;7339845;19;109417;-78
2022/11/24 00:15:34;;;;;;;;;;;10.30;99.90;;;;;;7338795;19;109017;-77
2022/11/24 00:18:01;;;;;;;;;;;10.30;99.90;;;;;;7341225;19;109680;-79
2022/11/24 00:20:28;;;;;;;;;;;10.30;99.90;;;;;;7338786;19;110790;-72
2022/11/24 00:22:55;;;;;;;;;;;10.20;99.90;;;;;;7341699;19;109098;-72
2022/11/24 00:25:22;;;;;;;;;;;10.20;99.90;;;;;;7345102;19;109678;-73
2022/11/24 00:27:49;;;;;;;;;;;10.20;99.90;;;;;;7341282;19;109671;-72
2022/11/24 00:30:16;;;;;;;;;;;10.20;99.90;;;;;;7338256;19;109499;-72
2022/11/24 00:32:43;;;;;;;;;;;10.20;99.90;;;;;;7340273;19;109919;-72
2022/11/24 00:35:10;;;;;;;;;;;10.20;99.90;;;;;;7341782;19;109001;-72
2022/11/24 00:37:37;;;;;;;;;;;10.20;99.90;;;;;;7339432;19;108295;-72
2022/11/24 00:40:04;;;;;;;;;;;10.20;99.90;;;;;;7339773;19;109690;-72
2022/11/24 00:42:31;;;;;;;;;;;10.20;99.90;;;;;;7339067;19;108899;-72
2022/11/24 00:44:58;;;;;;;;;;;10.20;99.90;;;;;;7340704;19;109736;-72
2022/11/24 00:47:24;;;;;;;;;;;10.20;99.90;;;;;;7341960;19;110674;-72
2022/11/24 00:49:51;;;;;;;;;;;10.20;99.90;;;;;;7340102;19;110242;-72
2022/11/24 00:52:18;;;;;;;;;;;10.20;99.90;;;;;;7337603;19;110356;-72
2022/11/24 00:54:45;;;;;;;;;;;10.20;99.90;;;;;;7340517;19;109078;-72
2022/11/24 00:57:12;;;;;;;;;;;10.20;99.90;;;;;;7340091;19;113129;-72
2022/11/24 00:59:39;;;;;;;;;;;10.20;99.90;;;;;;7338486;19;109013;-71
2022/11/24 01:02:06;;;;;;;;;;;10.20;99.90;;;;;;7341657;19;108552;-72
2022/11/24 01:04:33;;;;;;;;;;;10.10;99.90;;;;;;7337247;19;109233;-71
2022/11/24 01:07:00;;;;;;;;;;;10.10;99.90;;;;;;7340759;19;108932;-71
2022/11/24 01:09:27;;;;;;;;;;;10.10;99.90;;;;;;7343987;19;113677;-71
2022/11/24 01:12:00;;;;;;;;;;;10.10;99.90;;;;;;7338747;19;110284;-72
2022/11/24 01:14:27;;;;;;;;;;;10.10;99.90;;;;;;7340388;19;108663;-71
2022/11/24 01:16:54;;;;;;;;;;;10.10;99.90;;;;;;7341641;19;108982;-71
2022/11/24 01:19:21;;;;;;;;;;;10.10;99.90;;;;;;7338016;19;109260;-71
2022/11/24 01:21:48;;;;;;;;;;;10.00;99.90;;;;;;7339851;19;108546;-71
2022/11/24 01:24:15;;;;;;;;;;;10.00;99.90;;;;;;7339132;19;108504;-72
2022/11/24 01:26:42;;;;;;;;;;;10.00;99.90;;;;;;7338886;19;110837;-71
2022/11/24 01:29:09;;;;;;;;;;;10.00;99.90;;;;;;7340297;19;108419;-71
2022/11/24 01:31:36;;;;;;;;;;;10.00;99.90;;;;;;7345862;19;112216;-71
2022/11/24 01:34:03;;;;;;;;;;;10.00;99.90;;;;;;7340326;19;109736;-72
2022/11/24 01:36:30;;;;;;;;;;;10.00;99.90;;;;;;7338521;19;108390;-71
2022/11/24 01:38:57;;;;;;;;;;;10.10;99.90;;;;;;7338693;19;110781;-71
2022/11/24 01:41:25;;;;;;;;;;;10.10;99.90;;;;;;7339440;19;108577;-72
2022/11/24 01:43:53;;;;;;;;;;;10.00;99.90;;;;;;7339012;19;109203;-72
2022/11/24 01:46:35;;;;;;;;;;;10.10;99.90;;;;;;7338763;19;113038;-72
2022/11/24 01:49:02;;;;;;;;;;;10.10;99.90;;;;;;7336222;19;109197;-73
2022/11/24 01:51:31;;;;;;;;;;;10.10;99.90;;;;;;7341963;19;110313;-72
2022/11/24 01:54:00;;;;;;;;;;;10.10;99.90;;;;;;7337973;19;108668;-72
2022/11/24 01:56:27;;;;;;;;;;;10.10;99.90;;;;;;7338658;19;108470;-72
2022/11/24 01:58:55;;;;;;;;;;;10.10;99.90;;;;;;7337675;19;109793;-72
2022/11/24 02:01:22;;;;;;;;;;;10.10;99.90;;;;;;7338883;19;108445;-72
2022/11/24 02:03:50;;;;;;;;;;;10.10;99.90;;;;;;7338738;19;109432;-71
2022/11/24 02:06:19;;;;;;;;;;;10.10;99.90;;;;;;7338696;19;110363;-71
2022/11/24 02:09:07;;;;;;;;;;;10.10;99.90;;;;;;7337744;19;108335;-72
2022/11/24 02:11:35;;;;;;;;;;;10.20;99.90;;;;;;7337444;19;109242;-72
2022/11/24 02:14:03;;;;;;;;;;;10.10;99.90;;;;;;7342724;19;110426;-71
2022/11/24 02:16:31;;;;;;;;;;;10.20;99.90;;;;;;7333892;19;111064;-71
2022/11/24 02:18:58;;;;;;;;;;;10.20;99.90;;;;;;7334963;19;110641;-71
2022/11/24 02:21:25;;;;;;;;;;;10.20;99.90;;;;;;7335287;19;108777;-72
2022/11/24 02:23:58;;;;;;;;;;;10.20;99.90;;;;;;7337316;19;109627;-71
2022/11/24 02:26:34;;;;;;;;;;;10.20;99.90;;;;;;7338832;19;109137;-71
2022/11/24 02:29:01;;;;;;;;;;;10.20;99.90;;;;;;7337349;19;108649;-72
2022/11/24 02:31:27;;;;;;;;;;;10.20;99.90;;;;;;7332656;19;109338;-71
2022/11/24 02:33:54;;;;;;;;;;;10.20;99.90;;;;;;7334657;19;109497;-71
2022/11/24 02:36:21;;;;;;;;;;;10.30;99.90;;;;;;7344981;19;108806;-72
2022/11/24 02:38:48;;;;;;;;;;;10.30;99.90;;;;;;7339327;19;110256;-72
2022/11/24 02:41:18;;;;;;;;;;;10.30;99.90;;;;;;7338537;19;109626;-71
2022/11/24 02:43:55;;;;;;;;;;;10.30;99.90;;;;;;7337218;19;110013;-72
2022/11/24 02:46:22;;;;;;;;;;;10.30;99.90;;;;;;7337993;19;109797;-71
2022/11/24 02:48:49;;;;;;;;;;;10.30;99.90;;;;;;7337199;19;108553;-72
2022/11/24 02:51:16;;;;;;;;;;;10.30;99.90;;;;;;7339125;19;108586;-72
2022/11/24 02:53:42;;;;;;;;;;;10.30;99.90;;;;;;7333553;19;110424;-71
2022/11/24 02:56:09;;;;;;;;;;;10.40;99.90;;;;;;7335124;19;109750;-71
2022/11/24 02:58:36;;;;;;;;;;;10.40;99.90;;;;;;7341118;19;109327;-71
2022/11/24 03:01:03;;;;;;;;;;;10.40;99.90;;;;;;7337720;19;108637;-72
2022/11/24 03:03:31;;;;;;;;;;;10.40;99.90;;;;;;7333817;19;109250;-71
2022/11/24 03:05:57;;;;;;;;;;;10.40;99.90;;;;;;7335980;19;110224;-72
2022/11/24 03:08:24;;;;;;;;;;;10.40;99.90;;;;;;7335387;19;109165;-71
2022/11/24 03:10:51;;;;;;;;;;;10.50;99.90;;;;;;7344972;19;108810;-72
2022/11/24 03:13:18;;;;;;;;;;;10.50;99.90;;;;;;7342276;19;110458;-71
2022/11/24 03:15:45;;;;;;;;;;;10.60;99.90;;;;;;7342921;19;109196;-71
2022/11/24 03:18:12;;;;;;;;;;;10.50;99.90;;;;;;7340357;19;108868;-71
2022/11/24 03:20:39;;;;;;;;;;;10.50;99.90;;;;;;7347295;19;110026;-71
2022/11/24 03:23:06;;;;;;;;;;;10.50;99.90;;;;;;7343413;19;110161;-71
2022/11/24 03:25:33;;;;;;;;;;;10.50;99.90;;;;;;7342384;19;113064;-72
2022/11/24 03:28:00;;;;;;;;;;;10.50;99.90;;;;;;7344097;19;108845;-71
2022/11/24 03:30:27;;;;;;;;;;;10.50;99.90;;;;;;7342649;19;109086;-71
2022/11/24 03:32:54;;;;;;;;;;;10.50;99.90;;;;;;7342826;19;110185;-72
2022/11/24 03:35:21;;;;;;;;;;;10.50;99.90;;;;;;7343975;19;108994;-71
2022/11/24 03:37:48;;;;;;;;;;;10.50;99.90;;;;;;7343899;19;109316;-72
2022/11/24 03:40:16;;;;;;;;;;;10.50;99.90;;;;;;7340542;19;110555;-72
2022/11/24 03:42:43;;;;;;;;;;;10.50;99.90;;;;;;7346617;19;109034;-72
2022/11/24 03:45:10;;;;;;;;;;;10.50;99.90;;;;;;7340092;19;109819;-72
2022/11/24 03:47:57;;;;;;;;;;;10.50;99.90;;;;;;7341523;19;108786;-71
2022/11/24 03:50:24;;;;;;;;;;;10.50;99.90;;;;;;7340157;19;111542;-72
2022/11/24 03:52:51;;;;;;;;;;;10.50;99.90;;;;;;7343340;19;110472;-71
2022/11/24 03:55:18;;;;;;;;;;;10.50;99.90;;;;;;7338908;19;110391;-72
2022/11/24 03:57:45;;;;;;;;;;;10.50;99.90;;;;;;7341517;19;111833;-71
2022/11/24 04:00:12;;;;;;;;;;;10.50;99.90;;;;;;7340862;19;110419;-72
2022/11/24 04:02:41;;;;;;;;;;;10.50;99.90;;;;;;7345106;19;108713;-72
2022/11/24 04:05:08;;;;;;;;;;;10.50;99.90;;;;;;7341438;19;110277;-71
2022/11/24 04:07:35;;;;;;;;;;;10.50;99.90;;;;;;7341468;19;108736;-72
2022/11/24 04:10:02;;;;;;;;;;;10.50;99.90;;;;;;7343426;19;109128;-72
2022/11/24 04:12:44;;;;;;;;;;;10.50;99.90;;;;;;7342179;19;109664;-71
2022/11/24 04:15:12;;;;;;;;;;;10.50;99.90;;;;;;7341831;19;108480;-71
2022/11/24 04:17:39;;;;;;;;;;;10.40;99.90;;;;;;7341103;19;109214;-71
2022/11/24 04:20:06;;;;;;;;;;;10.50;99.90;;;;;;7341087;19;113258;-71
2022/11/24 04:22:34;;;;;;;;;;;10.50;99.90;;;;;;7340521;19;108874;-72
2022/11/24 04:25:01;;;;;;;;;;;10.50;99.90;;;;;;7346612;19;109553;-71
2022/11/24 04:27:28;;;;;;;;;;;10.50;99.90;;;;;;7342605;19;108900;-72
2022/11/24 04:29:55;;;;;;;;;;;10.50;99.90;;;;;;7342594;19;109369;-71
2022/11/24 04:32:22;;;;;;;;;;;10.40;99.90;;;;;;7340096;19;110300;-71
2022/11/24 04:34:49;;;;;;;;;;;10.40;99.90;;;;;;7342343;19;108673;-72
2022/11/24 04:37:15;;;;;;;;;;;10.40;99.90;;;;;;7340813;19;109590;-72
2022/11/24 04:39:43;;;;;;;;;;;10.40;99.90;;;;;;7342027;19;110523;-71
2022/11/24 04:42:10;;;;;;;;;;;10.40;99.90;;;;;;7341292;19;108729;-71
2022/11/24 04:44:37;;;;;;;;;;;10.30;99.90;;;;;;7340911;19;109970;-71
2022/11/24 04:47:05;;;;;;;;;;;10.30;99.90;;;;;;7345952;19;110441;-72
2022/11/24 04:49:32;;;;;;;;;;;10.30;99.90;;;;;;7341038;19;108980;-71
2022/11/24 04:51:59;;;;;;;;;;;10.30;99.90;;;;;;7340802;19;110722;-71
2022/11/24 04:54:26;;;;;;;;;;;10.30;99.90;;;;;;7340683;19;108277;-72
2022/11/24 04:56:52;;;;;;;;;;;10.20;99.90;;;;;;7341561;19;109225;-71
2022/11/24 04:59:19;;;;;;;;;;;10.20;99.90;;;;;;7339560;19;110284;-72
2022/11/24 05:01:46;;;;;;;;;;;10.20;99.90;;;;;;7341133;19;109574;-72
2022/11/24 05:04:14;;;;;;;;;;;10.20;99.90;;;;;;7340346;19;109598;-71
2022/11/24 05:06:41;;;;;;;;;;;10.10;99.90;;;;;;7340070;19;110279;-71
2022/11/24 05:09:12;;;;;;;;;;;10.10;99.90;;;;;;7345745;19;109030;-71
2022/11/24 05:11:39;;;;;;;;;;;10.00;99.90;;;;;;7340560;19;110354;-71
2022/11/24 05:14:06;;;;;;;;;;;10.00;99.90;;;;;;7339792;19;108521;-71
2022/11/24 05:16:32;;;;;;;;;;;10.00;99.90;;;;;;7339605;19;109172;-71
2022/11/24 05:18:59;;;;;;;;;;;10.00;99.90;;;;;;7338820;19;110315;-71
2022/11/24 05:21:26;;;;;;;;;;;10.00;99.90;;;;;;7339496;19;108824;-71
2022/11/24 05:23:53;;;;;;;;;;;10.00;99.90;;;;;;7337074;19;108672;-71
2022/11/24 05:26:20;;;;;;;;;;;10.00;99.90;;;;;;7338500;19;109749;-71
2022/11/24 05:28:47;;;;;;;;;;;9.90;99.90;;;;;;7339957;19;109026;-71
2022/11/24 05:31:14;;;;;;;;;;;9.90;99.90;;;;;;7343237;19;108812;-73
2022/11/24 05:33:42;;;;;;;;;;;10.00;99.90;;;;;;7339783;19;109001;-72
2022/11/24 05:36:51;;;;;;;;;;;9.90;99.90;;;;;;7339585;19;109198;-71
2022/11/24 05:38:55;;;;;;;;;;;9.90;99.90;;;;;;7339965;19;110218;-71
2022/11/24 05:41:22;;;;;;;;;;;10.00;99.90;;;;;;7338815;19;109413;-71
2022/11/24 05:43:49;;;;;;;;;;;10.00;99.90;;;;;;7338330;19;109313;-71
2022/11/24 05:46:16;;;;;;;;;;;9.90;99.90;;;;;;7338940;19;109479;-71
2022/11/24 05:48:43;;;;;;;;;;;9.90;99.90;;;;;;7338835;19;110514;-71
2022/11/24 05:51:10;;;;;;;;;;;9.90;99.90;;;;;;7342954;19;110292;-72
2022/11/24 05:53:37;;;;;;;;;;;9.80;99.90;;;;;;7337281;19;108732;-71
2022/11/24 05:56:04;;;;;;;;;;;9.80;99.90;;;;;;7338536;19;110037;-71
2022/11/24 05:58:31;;;;;;;;;;;9.80;99.90;;;;;;7336740;19;110655;-71
2022/11/24 06:00:58;;;;;;;;;;;9.80;99.90;;;;;;7337222;19;108491;-71
2022/11/24 06:03:24;;;;;;;;;;;9.80;99.90;;;;;;7337088;19;108602;-71
2022/11/24 06:05:51;;;;;;;;;;;9.70;99.90;;;;;;7337907;19;110355;-71
2022/11/24 06:08:18;;;;;;;;;;;9.70;99.90;;;;;;7338586;19;109018;-72
2022/11/24 06:10:45;;;;;;;;;;;9.70;99.90;;;;;;7338102;19;108999;-71
2022/11/24 06:13:12;;;;;;;;;;;9.70;99.90;;;;;;7340438;19;110274;-73
2022/11/24 06:15:40;;;;;;;;;;;9.70;99.90;;;;;;7338580;19;109170;-71
2022/11/24 06:18:07;;;;;;;;;;;9.70;99.90;;;;;;7338972;19;110525;-71
2022/11/24 06:20:34;;;;;;;;;;;9.60;99.90;;;;;;7338250;19;108549;-71
2022/11/24 06:23:00;;;;;;;;;;;9.60;99.90;;;;;;7338427;19;110805;-71
2022/11/24 06:25:28;;;;;;;;;;;9.60;99.90;;;;;;7335069;19;110390;-71
2022/11/24 06:27:55;;;;;;;;;;;9.60;99.90;;;;;;7336719;19;108778;-71
2022/11/24 06:30:21;;;;;;;;;;;9.60;99.90;;;;;;7336904;19;112327;-73
2022/11/24 06:32:52;;;;;;;;;;;9.60;99.90;;;;;;7335562;19;110341;-71
2022/11/24 06:35:19;;;;;;;;;;;9.50;99.90;;;;;;7340834;19;108813;-71
2022/11/24 06:37:46;;;;;;;;;;;9.50;99.90;;;;;;7335250;19;112076;-71
2022/11/24 06:40:13;;;;;;;;;;;9.60;99.90;;;;;;7335421;19;108533;-71
2022/11/24 06:42:40;;;;;;;;;;;9.50;99.90;;;;;;7336928;19;109848;-69
2022/11/24 06:45:07;;;;;;;;;;;9.40;99.90;;;;;;7341227;19;110037;-69
2022/11/24 06:47:35;;;;;;;;;;;9.40;99.90;;;;;;7344289;19;109430;-69
2022/11/24 06:50:02;;;;;;;;;;;9.40;99.90;;;;;;7344284;19;108934;-69
2022/11/24 06:52:29;;;;;;;;;;;9.40;99.90;;;;;;7342721;19;110188;-69
2022/11/24 06:54:56;;;;;;;;;;;9.40;99.90;;;;;;7343156;19;109602;-69
2022/11/24 06:57:23;;;;;;;;;;;9.40;99.90;;;;;;7347257;19;109570;-69
2022/11/24 06:59:50;;;;;;;;;;;9.40;99.90;;;;;;7341120;19;109064;-69
2022/11/24 07:02:17;;;;;;;;;;;9.40;99.90;;;;;;7341526;19;109259;-69
2022/11/24 07:04:44;;;;;;;;;;;9.30;99.90;;;;;;7342968;19;109777;-69
2022/11/24 07:07:11;;;;;;;;;;;9.30;99.90;;;;;;7343504;19;108863;-69
2022/11/24 07:09:38;;;;;;;;;;;9.40;99.90;;;;;;7343331;19;109090;-69
2022/11/24 07:12:05;;;;;;;;;;;9.30;99.90;;;;;;7343742;19;110330;-69
2022/11/24 07:14:32;;;;;;;;;;;9.30;99.90;;;;;;7342248;19;109548;-69
2022/11/24 07:17:01;;;;;;;;;;;9.30;99.90;;;;;;7344498;19;108941;-69
2022/11/24 07:19:28;;;;;;;;;;;9.30;99.90;;;;;;7349048;19;111816;-69
2022/11/24 07:21:55;;;;;;;;;;;9.20;99.90;;;;;;7344342;19;109447;-69
2022/11/24 07:24:22;;;;;;;;;;;9.30;99.90;;;;;;7342341;19;110140;-69
2022/11/24 07:26:49;;;;;;;;;;;9.30;99.90;;;;;;7344423;19;108799;-69
2022/11/24 07:29:15;;;;;;;;;;;9.20;99.90;;;;;;7344208;19;109276;-69
2022/11/24 07:31:44;;;;;;;;;;;9.30;99.90;;;;;;7344150;19;110757;-69
2022/11/24 07:34:13;;;;;;;;;;;9.20;99.90;;;;;;7342873;19;109019;-69
2022/11/24 07:36:40;;;;;;;;;;;9.20;99.90;;;;;;7342892;19;108406;-69
2022/11/24 07:39:07;;;;;;;;;;;9.30;99.90;;;;;;7341431;19;109700;-69
2022/11/24 07:41:34;;;;;;;;;;;9.30;99.90;;;;;;7349797;19;109381;-69
2022/11/24 07:44:01;;;;;;;;;;;9.20;99.90;;;;;;7340622;19;113699;-69
2022/11/24 07:46:28;;;;;;;;;;;9.30;99.90;;;;;;7336745;19;109178;-69
2022/11/24 07:48:55;;;;;;;;;;;9.30;99.90;;;;;;7336504;19;109663;-69
2022/11/24 07:51:22;;;;;;;;;;;9.30;99.90;;;;;;7341203;19;113296;-72
2022/11/24 07:53:49;;;;;;;;;;;9.30;99.90;;;;;;7335628;19;109313;-69
2022/11/24 07:56:16;;;;;;;;;;;9.30;99.90;;;;;;7336827;19;112143;-69
2022/11/24 07:58:43;;;;;;;;;;;9.40;99.90;;;;;;7339635;19;109556;-69
2022/11/24 08:01:18;;;;;;;;;;;9.40;99.90;;;;;;7345847;19;110183;-69
2022/11/24 08:03:45;;;;;;;;;;;9.40;99.90;;;;;;7340764;19;113384;-69
2022/11/24 08:06:13;;;;;;;;;;;9.40;99.90;;;;;;7340608;19;109394;-69
2022/11/24 08:08:59;;;;;;;;;;;9.40;99.90;;;;;;7338223;19;112778;-69
2022/11/24 08:11:27;;;;;;;;;;;9.50;99.90;;;;;;7341252;19;110402;-69
2022/11/24 08:13:54;;;;;;;;;;;9.50;99.90;;;;;;7339972;19;109934;-69
2022/11/24 08:16:21;;;;;;;;;;;9.50;99.90;;;;;;7338305;19;108986;-69
2022/11/24 08:18:49;;;;;;;;;;;9.50;99.90;;;;;;7341102;19;113564;-69
2022/11/24 08:21:16;;;;;;;;;;;9.50;99.90;;;;;;7337806;19;108583;-69
2022/11/24 08:23:43;;;;;;;;;;;9.60;99.90;;;;;;7346268;19;109735;-69
2022/11/24 08:26:14;;;;;;;;;;;9.50;99.90;;;;;;7340302;19;108452;-69
2022/11/24 08:28:41;;;;;;;;;;;9.60;99.90;;;;;;7337132;19;109361;-69
2022/11/24 08:31:11;;;;;;;;;;;9.60;99.90;;;;;;7338795;19;110150;-69
2022/11/24 08:33:38;;;;;;;;;;;9.60;99.90;;;;;;7340907;19;109037;-69
2022/11/24 08:36:07;;;;;;;;;;;9.70;99.90;;;;;;7339906;19;110358;-69
2022/11/24 08:38:34;;;;;;;;;;;9.70;99.90;;;;;;7334831;19;109696;-69
2022/11/24 08:41:03;;;;;;;;;;;9.70;99.90;;;;;;7340606;19;109344;-69
2022/11/24 08:43:30;;;;;;;;;;;9.70;99.90;;;;;;7338221;19;109892;-69
2022/11/24 08:46:00;;;;;;;;;;;9.70;99.90;;;;;;7342061;19;113757;-69
2022/11/24 08:48:28;;;;;;;;;;;9.80;99.90;;;;;;7337088;19;111729;-69
2022/11/24 08:50:55;;;;;;;;;;;9.80;99.90;;;;;;7336787;19;109451;-69
2022/11/24 08:53:22;;;;;;;;;;;9.90;99.90;;;;;;7337726;19;108751;-69
2022/11/24 08:55:49;;;;;;;;;;;9.90;99.90;;;;;;7339198;19;109462;-68
2022/11/24 08:58:16;;;;;;;;;;;9.90;99.90;;;;;;7339048;19;110370;-69
2022/11/24 09:00:43;;;;;;;;;;;9.90;99.90;;;;;;7340603;19;109036;-69
2022/11/24 09:03:10;;;;;;;;;;;10.00;99.90;;;;;;7337134;19;108970;-69
2022/11/24 09:05:38;;;;;;;;;;;10.00;99.90;;;;;;7339713;19;110762;-70
2022/11/24 09:08:20;;;;;;;;;;;10.10;99.90;;;;;;7344831;19;108771;-71
2022/11/24 09:10:47;;;;;;;;;;;10.10;99.90;;;;;;7339599;19;110142;-70
2022/11/24 09:13:13;;;;;;;;;;;10.10;99.90;;;;;;7339635;19;108776;-70
2022/11/24 09:15:40;;;;;;;;;;;10.20;99.90;;;;;;7340150;19;109290;-70
2022/11/24 09:18:07;;;;;;;;;;;10.20;99.90;;;;;;7339267;19;109396;-69
2022/11/24 09:20:34;;;;;;;;;;;10.30;99.90;;;;;;7337928;19;108766;-69
2022/11/24 09:23:01;;;;;;;;;;;10.30;99.90;;;;;;7339417;19;108994;-69
2022/11/24 09:25:28;;;;;;;;;;;10.30;99.90;;;;;;7338291;19;110217;-70
2022/11/24 09:27:56;;;;;;;;;;;10.40;99.90;;;;;;7338281;19;108529;-69
2022/11/24 09:30:23;;;;;;;;;;;10.40;99.90;;;;;;7340496;19;109128;-71
2022/11/24 09:32:49;;;;;;;;;;;10.50;99.90;;;;;;7339075;19;108567;-69
2022/11/24 09:35:17;;;;;;;;;;;10.50;99.90;;;;;;7337916;19;108628;-70
2022/11/24 09:37:44;;;;;;;;;;;10.60;99.90;;;;;;7337509;19;112320;-70
2022/11/24 09:40:13;;;;;;;;;;;10.60;99.90;;;;;;7338040;19;109335;-69
2022/11/24 09:42:44;;;;;;;;;;;10.60;99.90;;;;;;7339095;19;108251;-70
2022/11/24 09:45:18;;;;;;;;;;;10.70;99.90;;;;;;7336946;19;111927;-69
2022/11/24 09:48:11;;;;;;;;;;;10.70;99.90;;;;;;7338544;19;108856;-69
2022/11/24 09:50:38;;;;;;;;;;;10.80;99.90;;;;;;7337296;19;109911;-71
2022/11/24 09:53:09;;;;;;;;;;;10.80;99.90;;;;;;7342149;19;110752;-70
2022/11/24 09:55:43;;;;;;;;;;;10.90;99.90;;;;;;7335954;19;109006;-70
2022/11/24 09:58:17;;;;;;;;;;;11.00;99.90;;;;;;7338142;19;109255;-69
2022/11/24 10:00:45;;;;;;;;;;;11.00;99.90;;;;;;7338882;19;108355;-76
2022/11/24 10:03:19;;;;;;;;;;;11.00;99.90;;;;;;7337817;19;109608;-71
2022/11/24 10:05:47;;;;;;;;;;;11.10;99.90;;;;;;7338725;19;110084;-75
2022/11/24 10:08:35;;;;;;;;;;;11.10;99.90;;;;;;7339202;19;108993;-74
2022/11/24 10:11:04;;;;;;;;;;;11.20;99.90;;;;;;7338181;19;109230;-73
2022/11/24 10:13:49;;;;;;;;;;;11.20;99.90;;;;;;7343742;19;109911;-74
2022/11/24 10:16:36;;;;;;;;;;;11.30;99.90;;;;;;7336834;19;108767;-73
2022/11/24 10:19:11;;;;;;;;;;;11.30;99.90;;;;;;7334332;19;112428;-76
2022/11/24 10:21:49;;;;;;;;;;;11.30;99.90;;;;;;7338083;19;108758;-74
2022/11/24 10:24:24;;;;;;;;;;;11.40;99.90;;;;;;7335855;19;109101;-69
2022/11/24 10:27:01;;;;;;;;;;;11.40;99.90;;;;;;7335886;19;110202;-69
2022/11/24 10:29:40;;;;;;;;;;;11.50;99.90;;;;;;7334956;19;108626;-69
2022/11/24 10:32:14;;;;;;;;;;;11.50;99.90;;;;;;7338422;19;109537;-69
2022/11/24 10:34:43;;;;;;;;;;;11.60;99.90;;;;;;7337049;19;110502;-70
2022/11/24 10:37:10;;;;;;;;;;;11.60;99.90;;;;;;7341487;19;108668;-69
2022/11/24 10:39:53;;;;;;;;;;;11.70;99.90;;;;;;7335116;19;113563;-69
2022/11/24 10:42:25;;;;;;;;;;;11.70;99.90;;;;;;7334800;19;108666;-70
2022/11/24 10:45:12;;;;;;;;;;;11.80;99.90;;;;;;7336964;19;109321;-69
2022/11/24 10:47:40;;;;;;;;;;;11.90;99.90;;;;;;7338280;19;110516;-69
2022/11/24 10:50:16;;;;;;;;;;;12.00;99.90;;;;;;7336497;19;108660;-69
2022/11/24 10:53:01;;;;;;;;;;;12.00;99.90;;;;;;7340062;19;109742;-69
2022/11/24 10:56:04;;;;;;;;;;;12.10;99.90;;;;;;7335073;19;110300;-69
2022/11/24 10:58:34;;;;;;;;;;;12.20;99.90;;;;;;7331454;19;108902;-69
2022/11/24 11:01:27;;;;;;;;;;;12.30;99.90;;;;;;7335231;19;108883;-69
2022/11/24 11:03:55;;;;;;;;;;;12.30;99.90;;;;;;7332246;19;108701;-69
2022/11/24 11:06:24;;;;;;;;;;;12.40;99.90;;;;;;7331412;19;111947;-71
2022/11/24 11:09:06;;;;;;;;;;;12.50;99.90;;;;;;7333730;19;109249;-69
2022/11/24 11:11:34;;;;;;;;;;;12.50;99.90;;;;;;7333051;19;109497;-69
2022/11/24 11:14:08;;;;;;;;;;;12.60;99.90;;;;;;7331417;19;109312;-69
2022/11/24 11:16:36;;;;;;;;;;;12.60;99.90;;;;;;7331986;19;109181;-69
2022/11/24 11:19:24;;;;;;;;;;;12.70;99.90;;;;;;7333734;19;108887;-69
2022/11/24 11:22:11;;;;;;;;;;;12.80;99.90;;;;;;7332347;19;110782;-69
2022/11/24 11:24:39;;;;;;;;;;;12.90;99.90;;;;;;7337475;19;110590;-69
2022/11/24 11:27:23;;;;;;;;;;;13.00;99.90;;;;;;7332728;19;109059;-69
2022/11/24 11:29:50;;;;;;;;;;;13.00;99.90;;;;;;7327853;19;110426;-69
2022/11/24 11:32:49;;;;;;;;;;;13.10;99.90;;;;;;7337058;19;108671;-69
2022/11/24 11:35:36;;;;;;;;;;;13.20;99.90;;;;;;7335279;19;108521;-69
2022/11/24 11:38:05;;;;;;;;;;;13.30;99.90;;;;;;7339519;19;110836;-69
2022/11/24 11:40:33;;;;;;;;;;;13.40;99.90;;;;;;7339564;19;113387;-69
2022/11/24 11:43:04;;;;;;;;;;;13.40;99.90;;;;;;7341008;19;109224;-69
2022/11/24 11:45:36;;;;;;;;;;;13.40;99.90;;;;;;7339810;19;110216;-69
2022/11/24 11:48:03;;;;;;;;;;;13.50;99.90;;;;;;7344410;19;109691;-69
2022/11/24 11:50:43;;;;;;;;;;;13.50;99.90;;;;;;7340901;19;111637;-69
2022/11/24 11:53:46;;;;;;;;;;;13.60;99.90;;;;;;7339085;19;108615;-69
2022/11/24 11:56:18;;;;;;;;;;;13.70;99.90;;;;;;7341534;19;109274;-69
2022/11/24 11:58:51;;;;;;;;;;;13.70;99.90;;;;;;7344438;19;110859;-70
2022/11/24 12:01:18;;;;;;;;;;;13.70;99.90;;;;;;7342309;19;109467;-68
2022/11/24 12:03:54;;;;;;;;;;;13.70;99.90;;;;;;7341414;19;109604;-69
2022/11/24 12:06:21;;;;;;;;;;;13.80;99.90;;;;;;7342320;19;112255;-69
2022/11/24 12:08:48;;;;;;;;;;;13.90;99.90;;;;;;7342400;19;108784;-69
2022/11/24 12:11:35;;;;;;;;;;;14.00;99.90;;;;;;7347033;19;110215;-69
2022/11/24 12:14:05;;;;;;;;;;;14.00;99.90;;;;;;7341450;19;108291;-69
2022/11/24 12:16:44;;;;;;;;;;;14.10;99.90;;;;;;7340518;19;109297;-69
2022/11/24 12:19:29;;;;;;;;;;;14.10;99.90;;;;;;7341374;19;110386;-69
2022/11/24 12:22:00;;;;;;;;;;;14.20;99.90;;;;;;7339021;19;108544;-69
2022/11/24 12:24:29;;;;;;;;;;;14.30;99.90;;;;;;7340437;19;109018;-69
2022/11/24 12:26:58;;;;;;;;;;;14.30;99.90;;;;;;7341734;19;109472;-69
2022/11/24 12:29:27;;;;;;;;;;;14.40;99.90;;;;;;7341430;19;108390;-69
2022/11/24 12:32:14;;;;;;;;;;;14.40;99.90;;;;;;7347835;19;108593;-69
2022/11/24 12:34:49;;;;;;;;;;;14.40;99.90;;;;;;7341943;19;108719;-69
2022/11/24 12:37:22;;;;;;;;;;;14.50;99.90;;;;;;7339087;19;109389;-69
2022/11/24 12:39:51;;;;;;;;;;;14.60;99.90;;;;;;7340353;19;110226;-69
2022/11/24 12:42:21;;;;;;;;;;;14.70;99.90;;;;;;7337783;19;109950;-69
2022/11/24 12:45:00;;;;;;;;;;;14.70;99.90;;;;;;7341517;19;109285;-69
2022/11/24 12:47:45;;;;;;;;;;;14.70;99.90;;;;;;7339153;19;110280;-69
2022/11/24 12:50:23;;;;;;;;;;;14.70;99.90;;;;;;7342260;19;108158;-69
2022/11/24 12:52:53;;;;;;;;;;;14.70;99.90;;;;;;7341431;19;110319;-69
2022/11/24 12:55:25;;;;;;;;;;;14.70;99.90;;;;;;7344747;19;110274;-69
2022/11/24 12:58:03;;;;;;;;;;;14.60;99.90;;;;;;7339729;19;108574;-69
2022/11/24 13:00:46;;;;;;;;;;;14.60;99.90;;;;;;7338859;19;110342;-69
2022/11/24 13:03:19;;;;;;;;;;;14.60;99.90;;;;;;7339877;19;108689;-69
2022/11/24 13:05:57;;;;;;;;;;;14.60;99.90;;;;;;7340648;19;108294;-69
2022/11/24 13:08:25;;;;;;;;;;;14.60;99.90;;;;;;7339693;19;109308;-69
2022/11/24 13:10:52;;;;;;;;;;;14.70;99.90;;;;;;7341563;19;108886;-69
2022/11/24 13:13:26;;;;;;;;;;;14.70;99.90;;;;;;7338940;19;109090;-69
2022/11/24 13:15:53;;;;;;;;;;;14.80;99.90;;;;;;7335779;19;111821;-69
2022/11/24 13:18:44;;;;;;;;;;;14.80;99.90;;;;;;7346604;19;108629;-69
2022/11/24 13:21:29;;;;;;;;;;;14.90;99.90;;;;;;7338690;19;109184;-69
2022/11/24 13:24:04;;;;;;;;;;;15.00;99.90;;;;;;7339823;19;108690;-69
2022/11/24 13:26:43;;;;;;;;;;;15.00;99.90;;;;;;7338628;19;109298;-69
2022/11/24 13:29:28;;;;;;;;;;;15.10;99.90;;;;;;7337566;19;111862;-69
2022/11/24 13:32:01;;;;;;;;;;;15.20;99.90;;;;;;7340599;19;109256;-70
2022/11/24 13:34:37;;;;;;;;;;;15.30;99.90;;;;;;7338067;19;109640;-69
2022/11/24 13:37:16;;;;;;;;;;;15.30;99.90;;;;;;7338891;19;110268;-69
2022/11/24 13:40:21;;;;;;;;;;;15.40;99.90;;;;;;7337962;19;108994;-69
2022/11/24 13:42:59;;;;;;;;;;;15.40;99.90;;;;;;7344338;19;109206;-69
2022/11/24 13:45:38;;;;;;;;;;;15.40;99.90;;;;;;7338021;19;109013;-69
2022/11/24 13:48:18;;;;;;;;;;;15.40;99.90;;;;;;7338002;19;108449;-69
2022/11/24 13:50:49;;;;;;;;;;;15.40;99.90;;;;;;7338682;19;110171;-69
2022/11/24 13:53:25;;;;;;;;;;;15.40;99.90;;;;;;7338177;19;108585;-70
2022/11/24 13:55:59;;;;;;;;;;;15.40;99.90;;;;;;7340802;19;111063;-70
2022/11/24 13:58:29;;;;;;;;;;;15.40;99.90;;;;;;7338786;19;110574;-69
2022/11/24 14:01:14;;;;;;;;;;;15.30;99.90;;;;;;7339261;19;109118;-69
2022/11/24 14:04:00;;;;;;;;;;;15.30;99.90;;;;;;7339362;19;109876;-69
2022/11/24 14:06:49;;;;;;;;;;;15.30;99.90;;;;;;7343434;19;108946;-69
2022/11/24 14:09:22;;;;;;;;;;;15.30;99.90;;;;;;7339647;19;109296;-69
2022/11/24 14:11:57;;;;;;;;;;;15.30;99.90;;;;;;7338496;19;110046;-69
2022/11/24 14:14:24;;;;;;;;;;;15.20;99.90;;;;;;7338476;19;108478;-69
2022/11/24 14:17:12;;;;;;;;;;;15.20;99.90;;;;;;7336948;19;109284;-69
2022/11/24 14:19:43;;;;;;;;;;;15.20;99.90;;;;;;7336705;19;110390;-69
2022/11/24 14:22:17;;;;;;;;;;;15.10;99.90;;;;;;7337962;19;109516;-69
2022/11/24 14:24:45;;;;;;;;;;;15.10;99.90;;;;;;7336792;19;108920;-69
2022/11/24 14:27:15;;;;;;;;;;;15.00;99.90;;;;;;7336866;19;109683;-69